sensor_id;sensor_type;location;lat;lon;timestamp;P1;durP1;ratioP1;P2;durP2;ratioP2
51224;SDS011;37298;42.688;23.312;2023-06-24T00:00:10;11.32;;;8.65;;
51224;SDS011;37298;42.688;23.312;2023-06-24T00:02:37;11.00;;;8.40;;
51224;SDS011;37298;42.688;23.312;2023-06-24T00:05:04;12.30;;;7.95;;
51224;SDS011;37298;42.688;23.312;2023-06-24T00:07:32;13.80;;;8.43;;
51224;SDS011;37298;42.688;23.312;2023-06-24T00:10:01;10.40;;;8.10;;
51224;SDS011;37298;42.688;23.312;2023-06-24T00:12:29;11.77;;;8.73;;
51224;SDS011;37298;42.688;23.312;2023-06-24T00:14:55;11.52;;;9.30;;
51224;SDS011;37298;42.688;23.312;2023-06-24T00:17:22;11.13;;;8.60;;
51224;SDS011;37298;42.688;23.312;2023-06-24T00:19:48;11.98;;;8.75;;
51224;SDS011;37298;42.688;23.312;2023-06-24T00:22:15;11.82;;;8.48;;
51224;SDS011;37298;42.688;23.312;2023-06-24T00:24:41;12.88;;;8.90;;
51224;SDS011;37298;42.688;23.312;2023-06-24T00:27:08;11.82;;;8.85;;
51224;SDS011;37298;42.688;23.312;2023-06-24T00:29:34;12.90;;;8.30;;
51224;SDS011;37298;42.688;23.312;2023-06-24T00:32:01;12.07;;;8.38;;
51224;SDS011;37298;42.688;23.312;2023-06-24T00:34:28;12.50;;;8.13;;
51224;SDS011;37298;42.688;23.312;2023-06-24T00:36:54;13.82;;;8.02;;
51224;SDS011;37298;42.688;23.312;2023-06-24T00:39:21;9.88;;;7.63;;
51224;SDS011;37298;42.688;23.312;2023-06-24T00:41:48;14.68;;;8.23;;
51224;SDS011;37298;42.688;23.312;2023-06-24T00:44:14;11.25;;;7.85;;
51224;SDS011;37298;42.688;23.312;2023-06-24T00:46:41;11.57;;;8.77;;
51224;SDS011;37298;42.688;23.312;2023-06-24T00:49:07;12.63;;;8.45;;
51224;SDS011;37298;42.688;23.312;2023-06-24T00:51:33;11.50;;;8.77;;
51224;SDS011;37298;42.688;23.312;2023-06-24T00:54:01;12.20;;;8.77;;
51224;SDS011;37298;42.688;23.312;2023-06-24T00:56:29;14.20;;;9.05;;
51224;SDS011;37298;42.688;23.312;2023-06-24T01:01:22;12.93;;;9.02;;
51224;SDS011;37298;42.688;23.312;2023-06-24T01:03:50;14.57;;;9.03;;
51224;SDS011;37298;42.688;23.312;2023-06-24T01:06:16;11.60;;;8.93;;
51224;SDS011;37298;42.688;23.312;2023-06-24T01:08:43;12.88;;;9.18;;
51224;SDS011;37298;42.688;23.312;2023-06-24T01:11:16;12.43;;;8.52;;
51224;SDS011;37298;42.688;23.312;2023-06-24T01:13:42;9.80;;;8.10;;
51224;SDS011;37298;42.688;23.312;2023-06-24T01:16:10;14.85;;;9.55;;
51224;SDS011;37298;42.688;23.312;2023-06-24T01:18:40;16.33;;;10.15;;
51224;SDS011;37298;42.688;23.312;2023-06-24T01:21:12;13.85;;;10.05;;
51224;SDS011;37298;42.688;23.312;2023-06-24T01:26:29;13.45;;;9.55;;
51224;SDS011;37298;42.688;23.312;2023-06-24T01:31:42;12.77;;;8.82;;
51224;SDS011;37298;42.688;23.312;2023-06-24T01:34:18;12.57;;;10.00;;
51224;SDS011;37298;42.688;23.312;2023-06-24T01:36:47;13.88;;;9.07;;
51224;SDS011;37298;42.688;23.312;2023-06-24T01:39:16;17.15;;;10.77;;
51224;SDS011;37298;42.688;23.312;2023-06-24T01:41:44;16.88;;;9.90;;
51224;SDS011;37298;42.688;23.312;2023-06-24T01:46:38;12.50;;;8.98;;
51224;SDS011;37298;42.688;23.312;2023-06-24T01:49:07;14.48;;;10.23;;
51224;SDS011;37298;42.688;23.312;2023-06-24T01:51:37;15.95;;;10.27;;
51224;SDS011;37298;42.688;23.312;2023-06-24T01:54:07;17.85;;;10.90;;
51224;SDS011;37298;42.688;23.312;2023-06-24T01:56:36;15.98;;;9.98;;
51224;SDS011;37298;42.688;23.312;2023-06-24T01:59:03;16.40;;;11.30;;
51224;SDS011;37298;42.688;23.312;2023-06-24T02:01:31;16.10;;;11.40;;
51224;SDS011;37298;42.688;23.312;2023-06-24T02:03:58;17.60;;;10.88;;
51224;SDS011;37298;42.688;23.312;2023-06-24T02:06:27;14.98;;;10.85;;
51224;SDS011;37298;42.688;23.312;2023-06-24T02:08:54;20.40;;;11.90;;
51224;SDS011;37298;42.688;23.312;2023-06-24T02:11:21;22.25;;;12.68;;
51224;SDS011;37298;42.688;23.312;2023-06-24T02:13:48;18.00;;;12.32;;
51224;SDS011;37298;42.688;23.312;2023-06-24T02:16:15;19.38;;;11.73;;
51224;SDS011;37298;42.688;23.312;2023-06-24T02:18:42;19.63;;;12.18;;
51224;SDS011;37298;42.688;23.312;2023-06-24T02:21:09;17.73;;;11.93;;
51224;SDS011;37298;42.688;23.312;2023-06-24T02:23:36;14.93;;;11.35;;
51224;SDS011;37298;42.688;23.312;2023-06-24T02:26:03;17.90;;;12.10;;
51224;SDS011;37298;42.688;23.312;2023-06-24T02:28:31;17.67;;;11.93;;
51224;SDS011;37298;42.688;23.312;2023-06-24T02:30:57;17.65;;;11.95;;
51224;SDS011;37298;42.688;23.312;2023-06-24T02:33:24;18.92;;;12.32;;
51224;SDS011;37298;42.688;23.312;2023-06-24T02:35:50;17.77;;;12.63;;
51224;SDS011;37298;42.688;23.312;2023-06-24T02:38:17;19.50;;;13.10;;
51224;SDS011;37298;42.688;23.312;2023-06-24T02:40:44;26.65;;;13.45;;
51224;SDS011;37298;42.688;23.312;2023-06-24T02:43:11;17.58;;;12.40;;
51224;SDS011;37298;42.688;23.312;2023-06-24T02:45:37;24.38;;;13.35;;
51224;SDS011;37298;42.688;23.312;2023-06-24T02:48:04;19.48;;;12.73;;
51224;SDS011;37298;42.688;23.312;2023-06-24T02:50:31;19.88;;;13.52;;
51224;SDS011;37298;42.688;23.312;2023-06-24T02:52:58;23.45;;;13.63;;
51224;SDS011;37298;42.688;23.312;2023-06-24T02:55:28;19.80;;;13.25;;
51224;SDS011;37298;42.688;23.312;2023-06-24T02:58:00;18.60;;;13.00;;
51224;SDS011;37298;42.688;23.312;2023-06-24T03:00:51;18.48;;;13.65;;
51224;SDS011;37298;42.688;23.312;2023-06-24T03:03:41;19.60;;;13.90;;
51224;SDS011;37298;42.688;23.312;2023-06-24T03:06:11;18.77;;;13.60;;
51224;SDS011;37298;42.688;23.312;2023-06-24T03:08:40;20.20;;;13.43;;
51224;SDS011;37298;42.688;23.312;2023-06-24T03:11:08;17.50;;;12.52;;
51224;SDS011;37298;42.688;23.312;2023-06-24T03:13:36;19.77;;;13.02;;
51224;SDS011;37298;42.688;23.312;2023-06-24T03:16:10;19.95;;;13.30;;
51224;SDS011;37298;42.688;23.312;2023-06-24T03:18:45;27.42;;;12.93;;
51224;SDS011;37298;42.688;23.312;2023-06-24T03:21:11;18.80;;;12.75;;
51224;SDS011;37298;42.688;23.312;2023-06-24T03:23:39;19.73;;;13.13;;
51224;SDS011;37298;42.688;23.312;2023-06-24T03:26:06;23.77;;;14.07;;
51224;SDS011;37298;42.688;23.312;2023-06-24T03:28:33;20.95;;;12.85;;
51224;SDS011;37298;42.688;23.312;2023-06-24T03:31:10;18.00;;;12.73;;
51224;SDS011;37298;42.688;23.312;2023-06-24T03:33:37;20.40;;;12.20;;
51224;SDS011;37298;42.688;23.312;2023-06-24T03:36:04;18.10;;;13.20;;
51224;SDS011;37298;42.688;23.312;2023-06-24T03:38:33;17.13;;;12.50;;
51224;SDS011;37298;42.688;23.312;2023-06-24T03:40:59;15.70;;;11.90;;
51224;SDS011;37298;42.688;23.312;2023-06-24T03:43:26;19.55;;;12.93;;
51224;SDS011;37298;42.688;23.312;2023-06-24T03:45:53;19.83;;;12.10;;
51224;SDS011;37298;42.688;23.312;2023-06-24T03:48:20;19.08;;;12.68;;
51224;SDS011;37298;42.688;23.312;2023-06-24T03:50:46;17.83;;;12.02;;
51224;SDS011;37298;42.688;23.312;2023-06-24T03:53:13;16.23;;;11.98;;
51224;SDS011;37298;42.688;23.312;2023-06-24T03:55:39;25.15;;;12.02;;
51224;SDS011;37298;42.688;23.312;2023-06-24T03:58:05;19.95;;;13.77;;
51224;SDS011;37298;42.688;23.312;2023-06-24T04:00:32;19.52;;;12.35;;
51224;SDS011;37298;42.688;23.312;2023-06-24T04:02:58;21.40;;;12.90;;
51224;SDS011;37298;42.688;23.312;2023-06-24T04:05:27;17.48;;;12.82;;
51224;SDS011;37298;42.688;23.312;2023-06-24T04:07:53;19.33;;;12.80;;
51224;SDS011;37298;42.688;23.312;2023-06-24T04:10:19;18.92;;;12.90;;
51224;SDS011;37298;42.688;23.312;2023-06-24T04:12:46;17.23;;;12.38;;
51224;SDS011;37298;42.688;23.312;2023-06-24T04:15:13;21.25;;;13.10;;
51224;SDS011;37298;42.688;23.312;2023-06-24T04:17:39;19.27;;;12.80;;
51224;SDS011;37298;42.688;23.312;2023-06-24T04:20:06;19.55;;;13.18;;
51224;SDS011;37298;42.688;23.312;2023-06-24T04:22:34;19.33;;;12.35;;
51224;SDS011;37298;42.688;23.312;2023-06-24T04:25:00;21.63;;;12.80;;
51224;SDS011;37298;42.688;23.312;2023-06-24T04:27:27;18.90;;;12.32;;
51224;SDS011;37298;42.688;23.312;2023-06-24T04:29:53;17.80;;;12.35;;
51224;SDS011;37298;42.688;23.312;2023-06-24T04:32:19;16.92;;;12.13;;
51224;SDS011;37298;42.688;23.312;2023-06-24T04:34:46;18.90;;;12.75;;
51224;SDS011;37298;42.688;23.312;2023-06-24T04:37:12;17.17;;;12.93;;
51224;SDS011;37298;42.688;23.312;2023-06-24T04:39:39;19.00;;;11.95;;
51224;SDS011;37298;42.688;23.312;2023-06-24T04:42:06;18.38;;;13.25;;
51224;SDS011;37298;42.688;23.312;2023-06-24T04:44:32;18.58;;;12.07;;
51224;SDS011;37298;42.688;23.312;2023-06-24T04:46:58;17.77;;;11.95;;
51224;SDS011;37298;42.688;23.312;2023-06-24T04:49:24;24.33;;;11.35;;
51224;SDS011;37298;42.688;23.312;2023-06-24T04:51:50;17.10;;;13.38;;
51224;SDS011;37298;42.688;23.312;2023-06-24T04:54:17;21.40;;;11.98;;
51224;SDS011;37298;42.688;23.312;2023-06-24T04:56:44;17.52;;;11.77;;
51224;SDS011;37298;42.688;23.312;2023-06-24T04:59:10;16.63;;;12.48;;
51224;SDS011;37298;42.688;23.312;2023-06-24T05:01:37;17.83;;;13.05;;
51224;SDS011;37298;42.688;23.312;2023-06-24T05:04:03;18.48;;;11.90;;
51224;SDS011;37298;42.688;23.312;2023-06-24T05:06:29;17.85;;;12.02;;
51224;SDS011;37298;42.688;23.312;2023-06-24T05:08:56;16.67;;;13.07;;
51224;SDS011;37298;42.688;23.312;2023-06-24T05:11:22;17.05;;;12.68;;
51224;SDS011;37298;42.688;23.312;2023-06-24T05:13:49;17.88;;;11.93;;
51224;SDS011;37298;42.688;23.312;2023-06-24T05:16:15;16.92;;;11.85;;
51224;SDS011;37298;42.688;23.312;2023-06-24T05:18:43;18.67;;;11.95;;
51224;SDS011;37298;42.688;23.312;2023-06-24T05:21:09;19.10;;;11.52;;
51224;SDS011;37298;42.688;23.312;2023-06-24T05:23:35;14.40;;;11.23;;
51224;SDS011;37298;42.688;23.312;2023-06-24T05:26:01;18.40;;;12.20;;
51224;SDS011;37298;42.688;23.312;2023-06-24T05:28:28;15.38;;;10.73;;
51224;SDS011;37298;42.688;23.312;2023-06-24T05:30:54;14.35;;;10.85;;
51224;SDS011;37298;42.688;23.312;2023-06-24T05:33:21;16.97;;;12.00;;
51224;SDS011;37298;42.688;23.312;2023-06-24T05:35:48;17.10;;;11.73;;
51224;SDS011;37298;42.688;23.312;2023-06-24T05:38:14;16.80;;;11.02;;
51224;SDS011;37298;42.688;23.312;2023-06-24T05:40:41;16.13;;;11.07;;
51224;SDS011;37298;42.688;23.312;2023-06-24T05:43:07;17.92;;;11.20;;
51224;SDS011;37298;42.688;23.312;2023-06-24T05:45:33;18.15;;;11.85;;
51224;SDS011;37298;42.688;23.312;2023-06-24T05:48:02;14.48;;;10.93;;
51224;SDS011;37298;42.688;23.312;2023-06-24T05:50:28;16.48;;;11.05;;
51224;SDS011;37298;42.688;23.312;2023-06-24T05:52:54;16.08;;;10.68;;
51224;SDS011;37298;42.688;23.312;2023-06-24T05:55:21;15.95;;;11.68;;
51224;SDS011;37298;42.688;23.312;2023-06-24T05:57:47;13.90;;;10.85;;
51224;SDS011;37298;42.688;23.312;2023-06-24T06:00:13;15.13;;;10.75;;
51224;SDS011;37298;42.688;23.312;2023-06-24T06:02:41;14.68;;;11.18;;
51224;SDS011;37298;42.688;23.312;2023-06-24T06:05:08;15.13;;;10.90;;
51224;SDS011;37298;42.688;23.312;2023-06-24T06:07:34;14.95;;;10.23;;
51224;SDS011;37298;42.688;23.312;2023-06-24T06:10:03;15.63;;;9.88;;
51224;SDS011;37298;42.688;23.312;2023-06-24T06:12:29;12.10;;;10.00;;
51224;SDS011;37298;42.688;23.312;2023-06-24T06:14:56;13.52;;;9.20;;
51224;SDS011;37298;42.688;23.312;2023-06-24T06:17:22;13.65;;;9.32;;
51224;SDS011;37298;42.688;23.312;2023-06-24T06:19:48;13.15;;;10.50;;
51224;SDS011;37298;42.688;23.312;2023-06-24T06:22:15;16.55;;;11.00;;
51224;SDS011;37298;42.688;23.312;2023-06-24T06:24:41;15.60;;;11.18;;
51224;SDS011;37298;42.688;23.312;2023-06-24T06:27:09;14.30;;;10.57;;
51224;SDS011;37298;42.688;23.312;2023-06-24T06:29:36;14.05;;;10.30;;
51224;SDS011;37298;42.688;23.312;2023-06-24T06:32:07;12.98;;;10.25;;
51224;SDS011;37298;42.688;23.312;2023-06-24T06:34:34;17.73;;;10.18;;
51224;SDS011;37298;42.688;23.312;2023-06-24T06:37:02;14.88;;;9.90;;
51224;SDS011;37298;42.688;23.312;2023-06-24T06:39:29;15.75;;;9.95;;
51224;SDS011;37298;42.688;23.312;2023-06-24T06:41:55;14.75;;;9.45;;
51224;SDS011;37298;42.688;23.312;2023-06-24T06:44:23;12.25;;;9.93;;
51224;SDS011;37298;42.688;23.312;2023-06-24T06:46:49;18.15;;;10.25;;
51224;SDS011;37298;42.688;23.312;2023-06-24T06:49:16;13.05;;;8.43;;
51224;SDS011;37298;42.688;23.312;2023-06-24T06:51:42;14.10;;;8.93;;
51224;SDS011;37298;42.688;23.312;2023-06-24T06:54:08;20.20;;;10.10;;
51224;SDS011;37298;42.688;23.312;2023-06-24T06:56:35;11.88;;;8.95;;
51224;SDS011;37298;42.688;23.312;2023-06-24T06:59:01;10.85;;;8.85;;
51224;SDS011;37298;42.688;23.312;2023-06-24T07:01:28;16.58;;;9.52;;
51224;SDS011;37298;42.688;23.312;2023-06-24T07:03:54;13.82;;;9.68;;
51224;SDS011;37298;42.688;23.312;2023-06-24T07:06:20;12.80;;;10.10;;
51224;SDS011;37298;42.688;23.312;2023-06-24T07:08:46;11.68;;;8.60;;
51224;SDS011;37298;42.688;23.312;2023-06-24T07:11:12;14.02;;;10.20;;
51224;SDS011;37298;42.688;23.312;2023-06-24T07:13:39;12.05;;;9.95;;
51224;SDS011;37298;42.688;23.312;2023-06-24T07:16:05;12.23;;;10.02;;
51224;SDS011;37298;42.688;23.312;2023-06-24T07:18:32;13.57;;;10.00;;
51224;SDS011;37298;42.688;23.312;2023-06-24T07:20:59;14.00;;;10.48;;
51224;SDS011;37298;42.688;23.312;2023-06-24T07:23:25;12.00;;;9.27;;
51224;SDS011;37298;42.688;23.312;2023-06-24T07:25:51;12.70;;;9.98;;
51224;SDS011;37298;42.688;23.312;2023-06-24T07:28:17;13.80;;;9.82;;
51224;SDS011;37298;42.688;23.312;2023-06-24T07:30:44;12.23;;;10.00;;
51224;SDS011;37298;42.688;23.312;2023-06-24T07:33:10;13.85;;;10.60;;
51224;SDS011;37298;42.688;23.312;2023-06-24T07:35:36;12.80;;;9.57;;
51224;SDS011;37298;42.688;23.312;2023-06-24T07:38:02;14.30;;;9.90;;
51224;SDS011;37298;42.688;23.312;2023-06-24T07:40:29;13.98;;;9.48;;
51224;SDS011;37298;42.688;23.312;2023-06-24T07:42:55;13.57;;;10.15;;
51224;SDS011;37298;42.688;23.312;2023-06-24T07:45:21;14.13;;;9.63;;
51224;SDS011;37298;42.688;23.312;2023-06-24T07:47:48;14.68;;;9.63;;
51224;SDS011;37298;42.688;23.312;2023-06-24T07:50:14;12.45;;;9.82;;
51224;SDS011;37298;42.688;23.312;2023-06-24T07:52:40;14.60;;;9.73;;
51224;SDS011;37298;42.688;23.312;2023-06-24T07:55:06;13.45;;;9.93;;
51224;SDS011;37298;42.688;23.312;2023-06-24T07:57:33;14.15;;;10.45;;
51224;SDS011;37298;42.688;23.312;2023-06-24T07:59:59;13.23;;;9.82;;
51224;SDS011;37298;42.688;23.312;2023-06-24T08:02:25;11.55;;;9.45;;
51224;SDS011;37298;42.688;23.312;2023-06-24T08:04:52;12.55;;;10.00;;
51224;SDS011;37298;42.688;23.312;2023-06-24T08:07:18;11.18;;;9.38;;
51224;SDS011;37298;42.688;23.312;2023-06-24T08:09:44;12.13;;;9.98;;
51224;SDS011;37298;42.688;23.312;2023-06-24T08:12:11;12.80;;;10.02;;
51224;SDS011;37298;42.688;23.312;2023-06-24T08:14:37;13.40;;;10.48;;
51224;SDS011;37298;42.688;23.312;2023-06-24T08:17:03;12.00;;;10.02;;
51224;SDS011;37298;42.688;23.312;2023-06-24T08:19:29;12.40;;;9.68;;
51224;SDS011;37298;42.688;23.312;2023-06-24T08:21:56;11.07;;;9.27;;
51224;SDS011;37298;42.688;23.312;2023-06-24T08:24:22;15.27;;;10.00;;
51224;SDS011;37298;42.688;23.312;2023-06-24T08:26:48;13.85;;;10.05;;
51224;SDS011;37298;42.688;23.312;2023-06-24T08:29:15;11.57;;;10.07;;
51224;SDS011;37298;42.688;23.312;2023-06-24T08:31:41;12.73;;;9.88;;
51224;SDS011;37298;42.688;23.312;2023-06-24T08:34:07;11.38;;;9.60;;
51224;SDS011;37298;42.688;23.312;2023-06-24T08:36:33;14.65;;;9.95;;
51224;SDS011;37298;42.688;23.312;2023-06-24T08:39:00;11.43;;;9.88;;
51224;SDS011;37298;42.688;23.312;2023-06-24T08:41:26;11.32;;;9.80;;
51224;SDS011;37298;42.688;23.312;2023-06-24T08:43:53;13.02;;;10.27;;
51224;SDS011;37298;42.688;23.312;2023-06-24T08:46:19;12.35;;;9.98;;
51224;SDS011;37298;42.688;23.312;2023-06-24T08:48:45;13.25;;;10.23;;
51224;SDS011;37298;42.688;23.312;2023-06-24T08:51:14;12.93;;;10.05;;
51224;SDS011;37298;42.688;23.312;2023-06-24T08:53:41;12.57;;;10.23;;
51224;SDS011;37298;42.688;23.312;2023-06-24T08:56:09;11.32;;;9.32;;
51224;SDS011;37298;42.688;23.312;2023-06-24T08:58:35;12.23;;;9.20;;
51224;SDS011;37298;42.688;23.312;2023-06-24T09:01:02;14.88;;;9.60;;
51224;SDS011;37298;42.688;23.312;2023-06-24T09:03:29;13.73;;;9.30;;
51224;SDS011;37298;42.688;23.312;2023-06-24T09:05:55;11.80;;;9.60;;
51224;SDS011;37298;42.688;23.312;2023-06-24T09:08:21;10.25;;;8.90;;
51224;SDS011;37298;42.688;23.312;2023-06-24T09:10:52;10.43;;;9.00;;
51224;SDS011;37298;42.688;23.312;2023-06-24T09:13:19;11.00;;;9.20;;
51224;SDS011;37298;42.688;23.312;2023-06-24T09:15:45;13.93;;;10.60;;
51224;SDS011;37298;42.688;23.312;2023-06-24T09:18:11;11.07;;;8.60;;
51224;SDS011;37298;42.688;23.312;2023-06-24T09:20:40;9.45;;;8.40;;
51224;SDS011;37298;42.688;23.312;2023-06-24T09:23:07;13.80;;;9.60;;
51224;SDS011;37298;42.688;23.312;2023-06-24T09:25:33;14.15;;;10.48;;
51224;SDS011;37298;42.688;23.312;2023-06-24T09:28:02;11.38;;;9.48;;
51224;SDS011;37298;42.688;23.312;2023-06-24T09:30:32;12.65;;;9.88;;
51224;SDS011;37298;42.688;23.312;2023-06-24T09:32:59;12.02;;;9.65;;
51224;SDS011;37298;42.688;23.312;2023-06-24T09:35:25;13.70;;;9.85;;
51224;SDS011;37298;42.688;23.312;2023-06-24T09:37:52;11.93;;;9.32;;
51224;SDS011;37298;42.688;23.312;2023-06-24T09:40:18;10.70;;;8.70;;
51224;SDS011;37298;42.688;23.312;2023-06-24T09:42:51;10.57;;;8.68;;
51224;SDS011;37298;42.688;23.312;2023-06-24T09:45:27;12.07;;;8.82;;
51224;SDS011;37298;42.688;23.312;2023-06-24T09:47:54;12.85;;;9.25;;
51224;SDS011;37298;42.688;23.312;2023-06-24T09:50:20;13.30;;;8.97;;
51224;SDS011;37298;42.688;23.312;2023-06-24T09:52:47;11.68;;;8.88;;
51224;SDS011;37298;42.688;23.312;2023-06-24T09:55:14;11.98;;;9.10;;
51224;SDS011;37298;42.688;23.312;2023-06-24T09:57:41;11.65;;;8.77;;
51224;SDS011;37298;42.688;23.312;2023-06-24T10:00:08;10.20;;;7.97;;
51224;SDS011;37298;42.688;23.312;2023-06-24T10:02:35;10.77;;;8.25;;
51224;SDS011;37298;42.688;23.312;2023-06-24T10:05:03;10.48;;;8.20;;
51224;SDS011;37298;42.688;23.312;2023-06-24T10:09:56;11.40;;;8.70;;
51224;SDS011;37298;42.688;23.312;2023-06-24T10:12:22;10.07;;;8.05;;
51224;SDS011;37298;42.688;23.312;2023-06-24T10:14:52;10.45;;;9.13;;
51224;SDS011;37298;42.688;23.312;2023-06-24T10:17:18;10.13;;;8.30;;
51224;SDS011;37298;42.688;23.312;2023-06-24T10:19:44;10.10;;;8.15;;
51224;SDS011;37298;42.688;23.312;2023-06-24T10:22:11;9.82;;;7.43;;
51224;SDS011;37298;42.688;23.312;2023-06-24T10:24:38;9.38;;;7.72;;
51224;SDS011;37298;42.688;23.312;2023-06-24T10:27:06;11.02;;;7.93;;
51224;SDS011;37298;42.688;23.312;2023-06-24T10:29:33;9.40;;;7.65;;
51224;SDS011;37298;42.688;23.312;2023-06-24T10:32:03;8.60;;;7.35;;
51224;SDS011;37298;42.688;23.312;2023-06-24T10:34:30;8.73;;;6.93;;
51224;SDS011;37298;42.688;23.312;2023-06-24T10:36:58;8.80;;;7.35;;
51224;SDS011;37298;42.688;23.312;2023-06-24T10:41:51;7.90;;;6.63;;
51224;SDS011;37298;42.688;23.312;2023-06-24T10:44:20;10.93;;;7.20;;
51224;SDS011;37298;42.688;23.312;2023-06-24T10:46:52;10.15;;;8.05;;
51224;SDS011;37298;42.688;23.312;2023-06-24T10:49:19;8.48;;;7.05;;
51224;SDS011;37298;42.688;23.312;2023-06-24T10:51:45;9.77;;;7.03;;
51224;SDS011;37298;42.688;23.312;2023-06-24T10:54:11;7.70;;;6.72;;
51224;SDS011;37298;42.688;23.312;2023-06-24T10:56:37;10.00;;;6.50;;
51224;SDS011;37298;42.688;23.312;2023-06-24T10:59:04;8.75;;;6.60;;
51224;SDS011;37298;42.688;23.312;2023-06-24T11:01:31;7.65;;;6.55;;
51224;SDS011;37298;42.688;23.312;2023-06-24T11:03:57;8.85;;;6.35;;
51224;SDS011;37298;42.688;23.312;2023-06-24T11:06:23;8.63;;;6.13;;
51224;SDS011;37298;42.688;23.312;2023-06-24T11:08:52;9.00;;;5.30;;
51224;SDS011;37298;42.688;23.312;2023-06-24T11:11:19;6.85;;;5.70;;
51224;SDS011;37298;42.688;23.312;2023-06-24T11:13:47;7.50;;;5.43;;
51224;SDS011;37298;42.688;23.312;2023-06-24T11:16:14;6.53;;;5.75;;
51224;SDS011;37298;42.688;23.312;2023-06-24T11:18:45;8.48;;;6.32;;
51224;SDS011;37298;42.688;23.312;2023-06-24T11:21:12;6.88;;;5.50;;
51224;SDS011;37298;42.688;23.312;2023-06-24T11:23:39;5.77;;;5.00;;
51224;SDS011;37298;42.688;23.312;2023-06-24T11:26:05;7.60;;;5.63;;
51224;SDS011;37298;42.688;23.312;2023-06-24T11:28:31;6.28;;;5.05;;
51224;SDS011;37298;42.688;23.312;2023-06-24T11:30:59;6.53;;;4.95;;
51224;SDS011;37298;42.688;23.312;2023-06-24T11:33:32;7.40;;;5.00;;
51224;SDS011;37298;42.688;23.312;2023-06-24T11:35:59;7.43;;;5.28;;
51224;SDS011;37298;42.688;23.312;2023-06-24T11:38:25;8.85;;;5.40;;
51224;SDS011;37298;42.688;23.312;2023-06-24T11:40:57;8.60;;;5.93;;
51224;SDS011;37298;42.688;23.312;2023-06-24T11:43:25;8.00;;;5.38;;
51224;SDS011;37298;42.688;23.312;2023-06-24T11:45:51;7.95;;;5.30;;
51224;SDS011;37298;42.688;23.312;2023-06-24T11:48:19;6.70;;;5.55;;
51224;SDS011;37298;42.688;23.312;2023-06-24T11:53:12;7.90;;;5.43;;
51224;SDS011;37298;42.688;23.312;2023-06-24T11:55:38;8.55;;;6.07;;
51224;SDS011;37298;42.688;23.312;2023-06-24T11:58:05;7.80;;;5.95;;
51224;SDS011;37298;42.688;23.312;2023-06-24T12:00:31;7.53;;;5.88;;
51224;SDS011;37298;42.688;23.312;2023-06-24T12:02:58;9.57;;;6.18;;
51224;SDS011;37298;42.688;23.312;2023-06-24T12:05:25;9.38;;;5.97;;
51224;SDS011;37298;42.688;23.312;2023-06-24T12:07:55;5.95;;;5.35;;
51224;SDS011;37298;42.688;23.312;2023-06-24T12:10:23;7.55;;;5.55;;
51224;SDS011;37298;42.688;23.312;2023-06-24T12:12:49;9.67;;;5.77;;
51224;SDS011;37298;42.688;23.312;2023-06-24T12:15:15;9.05;;;6.00;;
51224;SDS011;37298;42.688;23.312;2023-06-24T12:17:41;10.90;;;5.82;;
51224;SDS011;37298;42.688;23.312;2023-06-24T12:20:08;7.35;;;5.60;;
51224;SDS011;37298;42.688;23.312;2023-06-24T12:22:35;8.20;;;6.07;;
51224;SDS011;37298;42.688;23.312;2023-06-24T12:25:01;8.50;;;6.15;;
51224;SDS011;37298;42.688;23.312;2023-06-24T12:27:28;8.90;;;6.65;;
51224;SDS011;37298;42.688;23.312;2023-06-24T12:29:54;8.43;;;6.13;;
51224;SDS011;37298;42.688;23.312;2023-06-24T12:32:20;9.23;;;6.43;;
51224;SDS011;37298;42.688;23.312;2023-06-24T12:34:47;8.23;;;6.28;;
51224;SDS011;37298;42.688;23.312;2023-06-24T12:37:13;6.88;;;6.05;;
51224;SDS011;37298;42.688;23.312;2023-06-24T12:39:39;10.23;;;6.40;;
51224;SDS011;37298;42.688;23.312;2023-06-24T12:42:06;12.07;;;6.45;;
51224;SDS011;37298;42.688;23.312;2023-06-24T12:44:33;9.50;;;6.28;;
51224;SDS011;37298;42.688;23.312;2023-06-24T12:46:59;7.68;;;6.47;;
51224;SDS011;37298;42.688;23.312;2023-06-24T12:49:25;7.93;;;6.40;;
51224;SDS011;37298;42.688;23.312;2023-06-24T12:51:52;8.60;;;6.55;;
51224;SDS011;37298;42.688;23.312;2023-06-24T12:54:18;11.55;;;6.53;;
51224;SDS011;37298;42.688;23.312;2023-06-24T12:56:44;9.43;;;6.60;;
51224;SDS011;37298;42.688;23.312;2023-06-24T12:59:10;10.15;;;6.90;;
51224;SDS011;37298;42.688;23.312;2023-06-24T13:01:37;11.02;;;7.35;;
51224;SDS011;37298;42.688;23.312;2023-06-24T13:04:04;7.95;;;6.85;;
51224;SDS011;37298;42.688;23.312;2023-06-24T13:06:30;8.77;;;6.90;;
51224;SDS011;37298;42.688;23.312;2023-06-24T13:08:56;11.27;;;7.07;;
51224;SDS011;37298;42.688;23.312;2023-06-24T13:11:22;9.35;;;7.10;;
51224;SDS011;37298;42.688;23.312;2023-06-24T13:13:48;8.95;;;7.28;;
51224;SDS011;37298;42.688;23.312;2023-06-24T13:16:14;8.88;;;6.20;;
51224;SDS011;37298;42.688;23.312;2023-06-24T13:18:41;9.38;;;7.03;;
51224;SDS011;37298;42.688;23.312;2023-06-24T13:21:07;8.02;;;6.75;;
51224;SDS011;37298;42.688;23.312;2023-06-24T13:23:34;11.40;;;7.25;;
51224;SDS011;37298;42.688;23.312;2023-06-24T13:28:28;11.73;;;7.20;;
51224;SDS011;37298;42.688;23.312;2023-06-24T13:30:54;14.10;;;7.45;;
51224;SDS011;37298;42.688;23.312;2023-06-24T13:33:21;11.93;;;5.28;;
51224;SDS011;37298;42.688;23.312;2023-06-24T13:35:47;14.20;;;5.85;;
51224;SDS011;37298;42.688;23.312;2023-06-24T13:38:15;18.17;;;6.03;;
51224;SDS011;37298;42.688;23.312;2023-06-24T13:40:41;8.48;;;5.13;;
51224;SDS011;37298;42.688;23.312;2023-06-24T13:43:08;14.02;;;5.22;;
51224;SDS011;37298;42.688;23.312;2023-06-24T13:45:34;25.52;;;6.65;;
51224;SDS011;37298;42.688;23.312;2023-06-24T13:48:00;22.38;;;7.47;;
51224;SDS011;37298;42.688;23.312;2023-06-24T13:50:26;22.63;;;7.78;;
51224;SDS011;37298;42.688;23.312;2023-06-24T13:52:53;24.52;;;6.90;;
51224;SDS011;37298;42.688;23.312;2023-06-24T13:55:19;11.98;;;6.53;;
51224;SDS011;37298;42.688;23.312;2023-06-24T13:57:46;17.90;;;5.45;;
51224;SDS011;37298;42.688;23.312;2023-06-24T14:00:12;14.43;;;5.25;;
51224;SDS011;37298;42.688;23.312;2023-06-24T14:02:39;8.30;;;4.60;;
51224;SDS011;37298;42.688;23.312;2023-06-24T14:05:06;8.05;;;4.63;;
51224;SDS011;37298;42.688;23.312;2023-06-24T14:07:32;13.10;;;4.30;;
51224;SDS011;37298;42.688;23.312;2023-06-24T14:10:00;7.25;;;4.22;;
51224;SDS011;37298;42.688;23.312;2023-06-24T14:12:26;8.43;;;4.75;;
51224;SDS011;37298;42.688;23.312;2023-06-24T14:14:52;7.68;;;4.45;;
51224;SDS011;37298;42.688;23.312;2023-06-24T14:17:18;11.85;;;4.50;;
51224;SDS011;37298;42.688;23.312;2023-06-24T14:19:44;11.02;;;4.00;;
51224;SDS011;37298;42.688;23.312;2023-06-24T14:22:11;9.25;;;4.50;;
51224;SDS011;37298;42.688;23.312;2023-06-24T14:24:38;9.45;;;4.47;;
51224;SDS011;37298;42.688;23.312;2023-06-24T14:27:05;10.25;;;4.43;;
51224;SDS011;37298;42.688;23.312;2023-06-24T14:29:32;7.60;;;4.47;;
51224;SDS011;37298;42.688;23.312;2023-06-24T14:31:58;11.85;;;4.63;;
51224;SDS011;37298;42.688;23.312;2023-06-24T14:34:24;11.02;;;5.30;;
51224;SDS011;37298;42.688;23.312;2023-06-24T14:36:51;9.70;;;5.13;;